Time;durP1;ratioP1;P1;durP2;ratioP2;P2;SDS_P1;SDS_P2;PMS_P1;PMS_P2;Temp;Humidity;BMP_temperature;BMP_pressure;BME280_temperature;BME280_humidity;BME280_pressure;Samples;Min_cycle;Max_cycle;Signal;HPM_P1;HPM_P2
2023/05/11 00:02:53;;;;;;;;;;;;;;;16.24;40.32;100506.28;5333324;32;34771;-81
2023/05/11 00:05:55;;;;;;;;;;;;;;;16.67;39.41;100500.09;5322944;32;34624;-69
2023/05/11 00:08:57;;;;;;;;;;;;;;;16.78;38.94;100506.47;5326771;32;34883;-69
2023/05/11 00:11:59;;;;;;;;;;;;;;;15.91;40.95;100501.19;5339218;32;35267;-69
2023/05/11 00:15:01;;;;;;;;;;;;;;;15.48;42.21;100496.66;5312076;32;34706;-77
2023/05/11 00:18:03;;;;;;;;;;;;;;;15.77;41.58;100502.94;5324000;32;34656;-70
2023/05/11 00:21:05;;;;;;;;;;;;;;;16.06;40.97;100498.56;5327243;32;35062;-69
2023/05/11 00:24:07;;;;;;;;;;;;;;;16.14;40.77;100513.06;5320291;32;34642;-69
2023/05/11 00:27:09;;;;;;;;;;;;;;;16.34;40.46;100503.03;5332888;32;35721;-80
2023/05/11 00:30:12;;;;;;;;;;;;;;;15.82;41.85;100503.53;5313811;32;35189;-70
2023/05/11 00:33:14;;;;;;;;;;;;;;;16.06;41.39;100499.41;5342953;32;35785;-80
2023/05/11 00:36:16;;;;;;;;;;;;;;;15.60;42.42;100496.81;5322861;32;47508;-79
2023/05/11 00:39:18;;;;;;;;;;;;;;;16.25;41.15;100494.72;5338209;32;34734;-79
2023/05/11 00:42:20;;;;;;;;;;;;;;;15.61;42.45;100493.22;5314115;32;36145;-79
2023/05/11 00:45:22;;;;;;;;;;;;;;;15.56;42.66;100492.62;5337534;32;33339;-81
2023/05/11 00:48:24;;;;;;;;;;;;;;;15.81;42.11;100485.94;5315679;32;34342;-80
2023/05/11 00:51:26;;;;;;;;;;;;;;;16.32;41.34;100489.88;5320994;32;34697;-70
2023/05/11 00:54:28;;;;;;;;;;;;;;;16.25;41.15;100491.22;5337295;32;35005;-69
2023/05/11 00:57:32;;;;;;;;;;;;;;;16.51;40.67;100489.59;5315549;32;35201;-69
2023/05/11 01:00:35;;;;;;;;;;;;;;;16.30;41.33;100480.34;5323759;32;34451;-69
2023/05/11 01:03:37;;;;;;;;;;;;;;;16.48;40.92;100484.47;5326535;32;36305;-80
2023/05/11 01:06:43;;;;;;;;;;;;;;;16.73;40.54;100481.19;5342526;32;34632;-69
2023/05/11 01:09:48;;;;;;;;;;;;;;;17.15;39.79;100480.25;5323468;32;46262;-70
2023/05/11 01:13:02;;;;;;;;;;;;;;;16.64;40.81;100482.59;5319618;32;45261;-81
2023/05/11 01:16:06;;;;;;;;;;;;;;;17.05;39.92;100482.62;5336712;32;35284;-79
2023/05/11 01:19:13;;;;;;;;;;;;;;;17.26;39.90;100485.72;5317026;32;35377;-70
2023/05/11 01:22:34;;;;;;;;;;;;;;;16.96;40.12;100479.72;5321475;32;37102;-79
2023/05/11 01:25:39;;;;;;;;;;;;;;;17.11;39.87;100477.87;5334363;32;34747;-81
2023/05/11 01:28:44;;;;;;;;;;;;;;;16.34;41.42;100487.97;5329072;32;35813;-70
2023/05/11 01:31:47;;;;;;;;;;;;;;;16.36;41.40;100480.81;5324995;32;47555;-80
2023/05/11 01:34:51;;;;;;;;;;;;;;;16.28;41.78;100487.50;5326161;32;35556;-80
2023/05/11 01:37:54;;;;;;;;;;;;;;;17.04;40.26;100482.75;5320485;32;35128;-70
2023/05/11 01:40:56;;;;;;;;;;;;;;;17.46;39.38;100481.75;5314573;32;35780;-78
2023/05/11 01:43:59;;;;;;;;;;;;;;;15.92;42.58;100483.50;5316468;32;34252;-70
2023/05/11 01:47:01;;;;;;;;;;;;;;;15.78;43.11;100483.44;5320701;32;35100;-70
2023/05/11 01:50:03;;;;;;;;;;;;;;;16.01;42.65;100487.38;5306054;32;35130;-80
2023/05/11 01:53:06;;;;;;;;;;;;;;;15.95;42.73;100480.66;5322397;32;35341;-81
2023/05/11 01:56:07;;;;;;;;;;;;;;;15.97;42.51;100486.69;5313844;32;34885;-80
2023/05/11 01:59:10;;;;;;;;;;;;;;;16.31;41.80;100482.03;5324152;32;34737;-80
2023/05/11 02:02:12;;;;;;;;;;;;;;;16.21;42.12;100473.78;5316638;32;34327;-80
2023/05/11 02:05:14;;;;;;;;;;;;;;;16.24;41.85;100477.09;5326032;32;35096;-70
2023/05/11 02:08:16;;;;;;;;;;;;;;;16.01;42.75;100469.69;5321882;32;45094;-70
2023/05/11 02:11:19;;;;;;;;;;;;;;;15.79;42.83;100474.56;5316337;32;34672;-79
2023/05/11 02:14:21;;;;;;;;;;;;;;;17.06;40.32;100468.41;5335786;32;35352;-69
2023/05/11 02:17:23;;;;;;;;;;;;;;;16.88;40.12;100474.06;5314477;32;35346;-79
2023/05/11 02:20:25;;;;;;;;;;;;;;;16.38;41.53;100475.41;5336628;32;34867;-79
2023/05/11 02:23:28;;;;;;;;;;;;;;;16.17;41.93;100473.12;5315626;32;34862;-76
2023/05/11 02:26:30;;;;;;;;;;;;;;;15.93;42.56;100464.00;5315740;32;35409;-79
2023/05/11 02:29:32;;;;;;;;;;;;;;;16.00;42.73;100465.31;5337485;32;36469;-80
2023/05/11 02:32:37;;;;;;;;;;;;;;;16.73;40.72;100462.59;5311040;32;35861;-79
2023/05/11 02:35:41;;;;;;;;;;;;;;;15.72;43.11;100467.94;5324826;32;34388;-69
2023/05/11 02:38:43;;;;;;;;;;;;;;;15.86;43.54;100465.31;5315301;32;35686;-78
2023/05/11 02:41:45;;;;;;;;;;;;;;;16.40;42.81;100458.44;5323145;32;34714;-79
2023/05/11 02:44:53;;;;;;;;;;;;;;;17.01;41.47;100457.25;5332202;32;46075;-69
2023/05/11 02:47:55;;;;;;;;;;;;;;;16.77;41.94;100454.34;5300248;32;35816;-80
2023/05/11 02:50:57;;;;;;;;;;;;;;;16.12;43.47;100458.44;5323765;32;35664;-69
2023/05/11 02:53:59;;;;;;;;;;;;;;;15.25;45.82;100451.16;5314577;32;34389;-78
2023/05/11 02:57:02;;;;;;;;;;;;;;;15.18;46.12;100450.66;5325800;32;35220;-70
2023/05/11 03:00:04;;;;;;;;;;;;;;;15.10;46.62;100459.97;5329205;32;35473;-80
2023/05/11 03:03:07;;;;;;;;;;;;;;;15.42;45.86;100450.19;5334799;32;35034;-79
2023/05/11 03:06:09;;;;;;;;;;;;;;;14.74;47.85;100460.22;5321645;32;35654;-79
2023/05/11 03:09:11;;;;;;;;;;;;;;;15.11;46.78;100451.09;5314205;32;34455;-69
2023/05/11 03:12:13;;;;;;;;;;;;;;;14.88;47.57;100460.34;5326246;32;34567;-70
2023/05/11 03:15:15;;;;;;;;;;;;;;;15.00;47.35;100459.62;5316583;32;37758;-76
2023/05/11 03:18:17;;;;;;;;;;;;;;;15.22;46.46;100451.34;5326048;32;35325;-80
2023/05/11 03:21:20;;;;;;;;;;;;;;;15.58;45.20;100453.63;5314797;32;35482;-69
2023/05/11 03:24:22;;;;;;;;;;;;;;;14.69;47.88;100462.31;5317286;32;34548;-76
2023/05/11 03:27:24;;;;;;;;;;;;;;;14.86;47.71;100463.06;5321872;32;34467;-80
2023/05/11 03:30:27;;;;;;;;;;;;;;;14.40;48.14;100472.62;5314003;32;34810;-80
2023/05/11 03:33:29;;;;;;;;;;;;;;;15.11;46.44;100469.62;5322217;32;35387;-77
2023/05/11 03:36:31;;;;;;;;;;;;;;;15.49;45.22;100462.12;5328320;32;35009;-80
2023/05/11 03:39:34;;;;;;;;;;;;;;;14.81;46.97;100465.13;5316194;32;35120;-70
2023/05/11 03:42:36;;;;;;;;;;;;;;;14.85;46.61;100473.72;5313415;32;35547;-80
2023/05/11 03:45:38;;;;;;;;;;;;;;;14.69;46.76;100471.09;5331747;32;34970;-69
2023/05/11 03:48:40;;;;;;;;;;;;;;;15.26;45.46;100462.59;5313887;32;35766;-79
2023/05/11 03:51:42;;;;;;;;;;;;;;;15.15;45.37;100474.66;5316441;32;34726;-80
2023/05/11 03:54:44;;;;;;;;;;;;;;;15.34;45.08;100473.63;5322786;32;35910;-69
2023/05/11 03:57:46;;;;;;;;;;;;;;;14.93;46.39;100483.88;5333993;32;44701;-79
2023/05/11 04:00:48;;;;;;;;;;;;;;;15.36;45.39;100472.59;5323587;32;35036;-69
2023/05/11 04:03:51;;;;;;;;;;;;;;;15.56;44.64;100475.88;5331027;32;35201;-80
2023/05/11 04:06:53;;;;;;;;;;;;;;;15.04;46.12;100471.75;5322956;32;33492;-81
2023/05/11 04:09:55;;;;;;;;;;;;;;;15.30;45.68;100474.72;5334432;32;36318;-69
2023/05/11 04:12:57;;;;;;;;;;;;;;;15.77;44.51;100474.63;5326888;32;34898;-77
2023/05/11 04:15:59;;;;;;;;;;;;;;;14.87;46.81;100480.63;5336654;32;35410;-77
2023/05/11 04:19:01;;;;;;;;;;;;;;;14.71;47.70;100489.53;5326429;32;34607;-70
2023/05/11 04:22:03;;;;;;;;;;;;;;;15.50;45.89;100486.81;5340533;32;34895;-80
2023/05/11 04:25:05;;;;;;;;;;;;;;;15.19;46.63;100491.22;5327625;32;35332;-70
2023/05/11 04:28:07;;;;;;;;;;;;;;;15.06;47.09;100495.50;5314522;32;34979;-81
2023/05/11 04:31:09;;;;;;;;;;;;;;;15.22;46.57;100499.00;5334929;32;34943;-81
2023/05/11 04:34:11;;;;;;;;;;;;;;;15.27;46.55;100504.91;5322280;32;35555;-81
2023/05/11 04:37:13;;;;;;;;;;;;;;;15.81;45.32;100507.13;5337648;32;35387;-81
2023/05/11 04:40:16;;;;;;;;;;;;;;;15.63;45.81;100501.09;5315140;32;43930;-79
2023/05/11 04:43:18;;;;;;;;;;;;;;;15.68;45.01;100499.03;5338038;32;35023;-70
2023/05/11 04:46:21;;;;;;;;;;;;;;;16.74;42.07;100499.69;5313127;32;34181;-81
2023/05/11 04:49:23;;;;;;;;;;;;;;;15.76;43.53;100504.75;5305752;32;35621;-81
2023/05/11 04:52:25;;;;;;;;;;;;;;;15.41;42.76;100509.41;5322654;32;34493;-82
2023/05/11 04:55:27;;;;;;;;;;;;;;;15.73;41.67;100504.06;5326660;32;35249;-80
2023/05/11 04:58:29;;;;;;;;;;;;;;;15.22;42.28;100511.41;5346417;32;35548;-77
2023/05/11 05:01:31;;;;;;;;;;;;;;;15.60;41.81;100511.84;5328791;32;36059;-70
2023/05/11 05:04:34;;;;;;;;;;;;;;;15.48;41.14;100505.47;5322381;32;35141;-70
2023/05/11 05:07:37;;;;;;;;;;;;;;;15.66;40.87;100512.38;5328027;32;34401;-80
2023/05/11 05:10:39;;;;;;;;;;;;;;;15.59;40.68;100512.81;5331688;32;35499;-79
2023/05/11 05:13:41;;;;;;;;;;;;;;;14.92;42.02;100516.59;5337576;32;35681;-70
2023/05/11 05:16:46;;;;;;;;;;;;;;;15.15;41.61;100510.88;5325923;32;46372;-80
2023/05/11 05:19:48;;;;;;;;;;;;;;;15.10;41.53;100516.44;5337081;32;36579;-70
2023/05/11 05:22:50;;;;;;;;;;;;;;;15.91;39.99;100517.09;5325105;32;35221;-70
2023/05/11 05:25:52;;;;;;;;;;;;;;;15.28;41.12;100511.03;5336444;32;35561;-70
2023/05/11 05:28:54;;;;;;;;;;;;;;;15.65;40.48;100512.47;5319454;32;35080;-70
2023/05/11 05:31:57;;;;;;;;;;;;;;;15.56;40.25;100519.13;5327095;32;33395;-69
2023/05/11 05:34:59;;;;;;;;;;;;;;;16.74;38.19;100522.69;5326267;32;35026;-81
2023/05/11 05:38:01;;;;;;;;;;;;;;;16.86;38.50;100521.06;5325990;32;34726;-64
2023/05/11 05:41:03;;;;;;;;;;;;;;;17.04;37.17;100517.25;5329456;32;36312;-72
2023/05/11 05:44:05;;;;;;;;;;;;;;;17.40;36.40;100526.47;5330135;32;34986;-71
2023/05/11 05:47:07;;;;;;;;;;;;;;;16.50;38.49;100519.75;5324413;32;34413;-74
2023/05/11 05:50:11;;;;;;;;;;;;;;;17.97;35.44;100516.47;5313831;32;34988;-74
2023/05/11 05:53:14;;;;;;;;;;;;;;;17.70;36.09;100524.44;5327686;32;34477;-69
2023/05/11 05:56:18;;;;;;;;;;;;;;;17.88;35.40;100522.38;5330399;32;46200;-73
2023/05/11 05:59:22;;;;;;;;;;;;;;;18.69;34.28;100523.97;5326222;32;35499;-66
2023/05/11 06:02:24;;;;;;;;;;;;;;;18.66;34.04;100535.63;5328852;32;35622;-66
2023/05/11 06:05:26;;;;;;;;;;;;;;;19.37;33.12;100528.78;5309602;32;34703;-78
2023/05/11 06:08:28;;;;;;;;;;;;;;;20.02;32.37;100528.34;5334516;32;34888;-89
2023/05/11 06:11:31;;;;;;;;;;;;;;;19.26;33.40;100524.25;5320214;32;37284;-80
2023/05/11 06:14:33;;;;;;;;;;;;;;;19.40;33.38;100524.09;5316013;32;34412;-85
2023/05/11 06:17:35;;;;;;;;;;;;;;;20.02;32.37;100523.88;5334725;32;33903;-79
2023/05/11 06:20:37;;;;;;;;;;;;;;;20.63;31.36;100522.78;5328154;32;35846;-65
2023/05/11 06:23:42;;;;;;;;;;;;;;;21.92;29.51;100518.50;5337716;32;34458;-68
2023/05/11 06:26:44;;;;;;;;;;;;;;;19.12;33.67;100533.22;5335551;32;34433;-84
2023/05/11 06:29:47;;;;;;;;;;;;;;;20.00;32.75;100520.47;5326984;32;44006;-75
2023/05/11 06:32:48;;;;;;;;;;;;;;;21.42;30.69;100521.75;5335736;32;34323;-89
2023/05/11 06:35:51;;;;;;;;;;;;;;;21.29;30.58;100532.59;5324808;32;34295;-82
2023/05/11 06:38:52;;;;;;;;;;;;;;;22.41;29.14;100523.22;5334237;32;34815;-77
2023/05/11 06:41:58;;;;;;;;;;;;;;;21.42;30.75;100523.56;5327198;32;34222;-80
2023/05/11 06:45:06;;;;;;;;;;;;;;;23.14;28.58;100511.41;5338204;32;36818;-78
2023/05/11 06:48:08;;;;;;;;;;;;;;;24.61;26.34;100499.62;5309650;32;34356;-80
2023/05/11 06:51:10;;;;;;;;;;;;;;;22.67;28.91;100521.81;5333015;32;34384;-73
2023/05/11 06:54:12;;;;;;;;;;;;;;;22.89;28.67;100514.59;5335933;32;34266;-76
2023/05/11 06:57:14;;;;;;;;;;;;;;;23.31;27.30;100501.81;5333459;32;35679;-75
2023/05/11 07:00:16;;;;;;;;;;;;;;;23.11;27.95;100509.00;5320120;32;44580;-76
2023/05/11 07:03:19;;;;;;;;;;;;;;;22.60;28.59;100509.06;5329773;32;34399;-65
2023/05/11 07:06:21;;;;;;;;;;;;;;;22.77;28.60;100510.28;5335296;32;34722;-82
2023/05/11 07:09:23;;;;;;;;;;;;;;;23.38;27.43;100497.63;5342908;32;33624;-90
2023/05/11 07:12:25;;;;;;;;;;;;;;;23.23;27.51;100497.16;5335418;32;35096;-68
2023/05/11 07:15:27;;;;;;;;;;;;;;;22.58;28.62;100503.84;5339054;32;34516;-82
2023/05/11 07:18:29;;;;;;;;;;;;;;;24.05;26.37;100490.56;5336174;32;35427;-70
2023/05/11 07:21:31;;;;;;;;;;;;;;;22.83;28.62;100493.66;5341145;32;34366;-66
2023/05/11 07:24:33;;;;;;;;;;;;;;;24.01;26.75;100489.16;5314902;32;37558;-82
2023/05/11 07:27:35;;;;;;;;;;;;;;;24.52;25.22;100487.91;5341942;32;34426;-80
2023/05/11 07:30:37;;;;;;;;;;;;;;;24.18;25.89;100483.03;5334236;32;34320;-80
2023/05/11 07:33:39;;;;;;;;;;;;;;;25.55;23.61;100476.00;5320143;32;35563;-68
2023/05/11 07:36:41;;;;;;;;;;;;;;;26.70;22.00;100484.75;5342054;32;34269;-67
2023/05/11 07:39:43;;;;;;;;;;;;;;;25.13;23.97;100481.97;5329030;32;34149;-67
2023/05/11 07:42:48;;;;;;;;;;;;;;;24.45;24.80;100484.97;5342540;32;44567;-66
2023/05/11 07:45:50;;;;;;;;;;;;;;;24.98;24.02;100470.84;5332511;32;35040;-66
2023/05/11 07:48:53;;;;;;;;;;;;;;;25.54;23.50;100483.22;5325325;32;34201;-66
2023/05/11 07:52:15;;;;;;;;;;;;;;;26.16;22.63;100469.78;5328012;32;35985;-64
2023/05/11 07:55:18;;;;;;;;;;;;;;;26.47;22.53;100475.56;5330552;32;45177;-68
2023/05/11 07:58:21;;;;;;;;;;;;;;;24.83;24.59;100478.56;5341323;32;34725;-68
2023/05/11 08:01:23;;;;;;;;;;;;;;;26.15;22.52;100481.56;5330825;32;34335;-66
2023/05/11 08:04:26;;;;;;;;;;;;;;;24.20;25.28;100482.88;5331825;32;34206;-67
2023/05/11 08:07:28;;;;;;;;;;;;;;;26.81;22.18;100472.00;5322149;32;34091;-74
2023/05/11 08:10:31;;;;;;;;;;;;;;;26.86;22.17;100480.44;5334853;32;34441;-74
2023/05/11 08:13:33;;;;;;;;;;;;;;;27.16;21.28;100466.38;5339254;32;34172;-74
2023/05/11 08:16:36;;;;;;;;;;;;;;;26.43;21.84;100475.03;5328899;32;34393;-70
2023/05/11 08:19:38;;;;;;;;;;;;;;;26.09;22.40;100460.66;5340276;32;35641;-66
2023/05/11 08:22:40;;;;;;;;;;;;;;;25.96;22.15;100468.31;5333532;32;34925;-75
2023/05/11 08:25:50;;;;;;;;;;;;;;;25.90;22.05;100464.37;5333626;32;34435;-72
2023/05/11 08:28:52;;;;;;;;;;;;;;;27.73;20.42;100452.12;5319206;32;44870;-70
2023/05/11 08:31:54;;;;;;;;;;;;;;;26.62;21.61;100465.00;5337470;32;34600;-69
2023/05/11 08:34:56;;;;;;;;;;;;;;;27.10;21.32;100450.87;5336899;32;35268;-81
2023/05/11 08:37:58;;;;;;;;;;;;;;;25.61;22.25;100452.00;5333757;32;35272;-77
2023/05/11 08:41:03;;;;;;;;;;;;;;;26.78;20.85;100464.22;5340927;32;34765;-73
2023/05/11 08:44:06;;;;;;;;;;;;;;;26.13;21.54;100451.22;5320667;32;34951;-74
2023/05/11 08:47:09;;;;;;;;;;;;;;;25.96;22.29;100454.84;5332361;32;34895;-75
2023/05/11 08:50:24;;;;;;;;;;;;;;;26.72;21.48;100453.06;5318293;32;45414;-71
2023/05/11 08:53:26;;;;;;;;;;;;;;;27.19;21.27;100438.25;5318354;32;34927;-84
2023/05/11 08:56:28;;;;;;;;;;;;;;;26.59;21.63;100455.38;5325004;32;35496;-73
2023/05/11 08:59:32;;;;;;;;;;;;;;;28.51;19.44;100430.72;5334716;32;35206;-77
2023/05/11 09:02:35;;;;;;;;;;;;;;;27.73;20.34;100435.94;5327683;32;34770;-75
2023/05/11 09:05:36;;;;;;;;;;;;;;;26.86;21.08;100437.31;5332496;32;35282;-70
2023/05/11 09:08:39;;;;;;;;;;;;;;;27.25;21.17;100426.81;5329840;32;35551;-71
2023/05/11 09:11:41;;;;;;;;;;;;;;;26.58;21.74;100433.97;5324886;32;34832;-79
2023/05/11 09:14:43;;;;;;;;;;;;;;;26.67;21.56;100428.47;5336633;32;35349;-82
2023/05/11 09:17:45;;;;;;;;;;;;;;;27.82;20.78;100425.97;5340984;32;35039;-75
2023/05/11 09:20:48;;;;;;;;;;;;;;;28.21;20.33;100412.53;5319399;32;34402;-81
2023/05/11 09:23:51;;;;;;;;;;;;;;;28.54;19.73;100421.44;5330606;32;35587;-77
2023/05/11 09:27:05;;;;;;;;;;;;;;;26.51;22.31;100427.56;5329583;32;35382;-78
2023/05/11 09:30:33;;;;;;;;;;;;;;;25.57;23.48;100407.59;5325363;32;36692;-75
2023/05/11 09:33:35;;;;;;;;;;;;;;;27.45;21.05;100416.53;5338175;32;33897;-81
2023/05/11 09:36:38;;;;;;;;;;;;;;;25.44;23.61;100415.22;5322091;32;34896;-76
2023/05/11 09:39:40;;;;;;;;;;;;;;;26.64;20.84;100403.69;5340485;32;34373;-79
2023/05/11 09:43:02;;;;;;;;;;;;;;;26.51;20.41;100406.00;5316912;32;34708;-94
2023/05/11 09:46:06;;;;;;;;;;;;;;;25.46;22.47;100405.12;5335459;32;36467;-70
2023/05/11 09:49:09;;;;;;;;;;;;;;;24.75;24.20;100402.38;5321512;32;35240;-71
2023/05/11 09:52:14;;;;;;;;;;;;;;;25.01;23.05;100399.81;5335087;32;35362;-73
2023/05/11 09:55:17;;;;;;;;;;;;;;;25.50;22.46;100397.56;5328434;32;47099;-74
2023/05/11 09:58:21;;;;;;;;;;;;;;;26.25;20.42;100390.69;5328368;32;34563;-83
2023/05/11 10:01:31;;;;;;;;;;;;;;;27.92;18.69;100389.66;5344529;32;34457;-71
2023/05/11 10:04:33;;;;;;;;;;;;;;;26.99;19.53;100387.28;5319307;32;35076;-67
2023/05/11 10:07:36;;;;;;;;;;;;;;;27.28;19.16;100388.66;5314670;32;33967;-70
2023/05/11 10:10:39;;;;;;;;;;;;;;;27.06;19.66;100378.56;5324595;32;36364;-70
2023/05/11 10:13:42;;;;;;;;;;;;;;;26.80;20.11;100386.72;5320585;32;35465;-87
2023/05/11 10:16:45;;;;;;;;;;;;;;;26.97;18.97;100383.03;5338474;32;35841;-80
2023/05/11 10:19:47;;;;;;;;;;;;;;;26.37;19.51;100372.41;5329102;32;44981;-84
2023/05/11 10:22:51;;;;;;;;;;;;;;;24.55;22.40;100374.78;5318787;32;34617;-81
2023/05/11 10:25:55;;;;;;;;;;;;;;;26.09;21.36;100382.56;5335436;32;34369;-72
2023/05/11 10:28:59;;;;;;;;;;;;;;;25.57;21.81;100369.06;5323208;32;34794;-83
2023/05/11 10:32:01;;;;;;;;;;;;;;;26.97;19.87;100362.31;5327347;32;35546;-69
2023/05/11 10:35:04;;;;;;;;;;;;;;;27.36;19.09;100380.56;5332717;32;36555;-84
2023/05/11 10:38:06;;;;;;;;;;;;;;;27.25;19.02;100367.44;5323124;32;35036;-71
2023/05/11 10:41:29;;;;;;;;;;;;;;;27.86;18.48;100370.59;5322196;32;34538;-71
2023/05/11 10:44:34;;;;;;;;;;;;;;;27.78;18.08;100358.81;5287638;32;35741;-76
2023/05/11 10:47:45;;;;;;;;;;;;;;;27.32;18.94;100359.50;5309886;32;35325;-78
2023/05/11 10:51:00;;;;;;;;;;;;;;;28.39;17.91;100355.59;5327823;32;45367;-77
2023/05/11 10:54:07;;;;;;;;;;;;;;;27.95;18.47;100338.03;5321852;32;37726;-74
2023/05/11 10:57:10;;;;;;;;;;;;;;;28.71;17.43;100351.88;5322391;32;36254;-86
2023/05/11 11:00:15;;;;;;;;;;;;;;;28.34;17.82;100334.53;5337057;32;34401;-71
2023/05/11 11:03:17;;;;;;;;;;;;;;;27.89;18.27;100352.22;5336174;32;47276;-84
2023/05/11 11:06:28;;;;;;;;;;;;;;;25.98;20.57;100343.25;5306647;32;35402;-77
2023/05/11 11:09:49;;;;;;;;;;;;;;;26.90;19.35;100336.19;5316404;32;33694;-74
2023/05/11 11:13:05;;;;;;;;;;;;;;;27.13;19.00;100331.00;5318953;32;45516;-77
2023/05/11 11:16:08;;;;;;;;;;;;;;;25.77;20.80;100342.81;5336339;32;34461;-74
2023/05/11 11:19:28;;;;;;;;;;;;;;;25.31;21.43;100325.97;5325826;32;33366;-83
2023/05/11 11:22:34;;;;;;;;;;;;;;;26.48;19.85;100333.56;5320253;32;35239;-73
2023/05/11 11:25:49;;;;;;;;;;;;;;;26.36;20.10;100336.53;5344638;32;34348;-72
2023/05/11 11:28:57;;;;;;;;;;;;;;;26.20;20.15;100317.59;5342165;32;47044;-91
2023/05/11 11:32:19;;;;;;;;;;;;;;;25.35;21.23;100321.97;5330081;32;35106;-72
2023/05/11 11:35:42;;;;;;;;;;;;;;;24.12;22.31;100322.53;5328724;32;44676;-76
2023/05/11 11:39:00;;;;;;;;;;;;;;;25.31;20.49;100321.44;5334956;32;34661;-73
2023/05/11 11:42:03;;;;;;;;;;;;;;;26.82;18.68;100307.34;5338893;32;36154;-70
2023/05/11 11:45:24;;;;;;;;;;;;;;;27.36;18.00;100320.38;5322411;32;35572;-72
2023/05/11 11:48:33;;;;;;;;;;;;;;;28.17;17.33;100311.25;5316096;32;36219;-73
2023/05/11 11:51:39;;;;;;;;;;;;;;;30.58;15.21;100303.97;5330253;32;35131;-70
2023/05/11 11:54:43;;;;;;;;;;;;;;;28.55;17.46;100328.50;5339105;32;34931;-72
2023/05/11 11:57:49;;;;;;;;;;;;;;;26.17;19.94;100320.62;5324745;32;35006;-78
2023/05/11 12:00:51;;;;;;;;;;;;;;;25.27;21.29;100320.06;5331755;32;44455;-74
2023/05/11 12:04:02;;;;;;;;;;;;;;;25.34;21.28;100323.81;5331267;32;34976;-79
2023/05/11 12:07:06;;;;;;;;;;;;;;;25.50;21.14;100320.38;5336084;32;36917;-72
2023/05/11 12:10:12;;;;;;;;;;;;;;;25.73;20.89;100319.91;5333040;32;34248;-72
2023/05/11 12:13:14;;;;;;;;;;;;;;;23.01;23.19;100317.84;5341731;32;37110;-69
2023/05/11 12:16:17;;;;;;;;;;;;;;;24.09;22.02;100312.09;5329301;32;43627;-72
2023/05/11 12:19:22;;;;;;;;;;;;;;;23.34;22.71;100308.47;5332198;32;36304;-72
2023/05/11 12:22:25;;;;;;;;;;;;;;;24.49;21.52;100316.28;5339128;32;36330;-85
2023/05/11 12:25:27;;;;;;;;;;;;;;;24.66;21.40;100296.62;5327877;32;35265;-77
2023/05/11 12:28:30;;;;;;;;;;;;;;;23.88;22.70;100306.09;5343182;32;35382;-78
2023/05/11 12:31:38;;;;;;;;;;;;;;;23.73;22.53;100295.00;5336458;32;35709;-74
2023/05/11 12:34:41;;;;;;;;;;;;;;;24.79;21.25;100302.47;5326834;32;36438;-72
2023/05/11 12:37:43;;;;;;;;;;;;;;;24.22;20.75;100299.16;5330001;32;35237;-74
2023/05/11 12:40:51;;;;;;;;;;;;;;;24.56;21.11;100277.06;5339810;32;45234;-78
2023/05/11 12:43:54;;;;;;;;;;;;;;;24.23;22.76;100279.38;5337530;32;45001;-78
2023/05/11 12:46:57;;;;;;;;;;;;;;;23.22;24.71;100289.03;5329730;32;34907;-84
2023/05/11 12:49:59;;;;;;;;;;;;;;;23.02;24.40;100292.72;5335574;32;35229;-92
2023/05/11 12:53:12;;;;;;;;;;;;;;;23.35;24.20;100278.00;5319585;32;36685;-74
2023/05/11 12:56:14;;;;;;;;;;;;;;;23.49;24.15;100277.53;5342989;32;34021;-75
2023/05/11 12:59:26;;;;;;;;;;;;;;;23.17;24.34;100275.19;5331889;32;45642;-73
2023/05/11 13:02:29;;;;;;;;;;;;;;;24.06;23.24;100258.69;5330380;32;34733;-83
2023/05/11 13:05:31;;;;;;;;;;;;;;;24.42;20.88;100256.94;5340427;32;35308;-75
2023/05/11 13:08:34;;;;;;;;;;;;;;;23.63;22.30;100268.19;5325361;32;36928;-81
2023/05/11 13:11:36;;;;;;;;;;;;;;;23.85;22.74;100248.22;5330516;32;34786;-81
2023/05/11 13:14:38;;;;;;;;;;;;;;;24.16;22.78;100256.81;5320823;32;36099;-79
2023/05/11 13:17:41;;;;;;;;;;;;;;;23.46;23.72;100259.06;5344972;32;34475;-89
2023/05/11 13:20:43;;;;;;;;;;;;;;;23.50;24.10;100251.53;5322061;32;35751;-75
2023/05/11 13:23:49;;;;;;;;;;;;;;;23.77;23.69;100258.84;5329775;32;45997;-90
2023/05/11 13:26:51;;;;;;;;;;;;;;;24.21;22.81;100229.47;5340025;32;34309;-83
2023/05/11 13:29:53;;;;;;;;;;;;;;;23.78;23.93;100239.91;5337702;32;35696;-78
2023/05/11 13:32:55;;;;;;;;;;;;;;;23.69;23.92;100238.09;5344255;32;34561;-82
2023/05/11 13:35:57;;;;;;;;;;;;;;;23.27;23.38;100234.13;5335090;32;34633;-82
2023/05/11 13:38:59;;;;;;;;;;;;;;;23.51;23.05;100237.16;5341239;32;34285;-77
2023/05/11 13:42:01;;;;;;;;;;;;;;;23.92;22.79;100235.03;5330546;32;35439;-72
2023/05/11 13:45:06;;;;;;;;;;;;;;;23.86;22.44;100219.53;5330259;32;34640;-80
2023/05/11 13:48:09;;;;;;;;;;;;;;;22.79;23.53;100235.00;5323163;32;34246;-81
2023/05/11 13:51:12;;;;;;;;;;;;;;;22.59;23.72;100229.66;5320478;32;35295;-81
2023/05/11 13:54:14;;;;;;;;;;;;;;;22.65;23.69;100213.03;5326126;32;35073;-77
2023/05/11 13:57:16;;;;;;;;;;;;;;;23.79;22.28;100232.69;5330465;32;44083;-72
2023/05/11 14:00:18;;;;;;;;;;;;;;;23.27;22.99;100218.88;5336124;32;36257;-72
2023/05/11 14:03:22;;;;;;;;;;;;;;;23.07;23.07;100212.72;5332245;32;35704;-72
2023/05/11 14:06:24;;;;;;;;;;;;;;;23.11;22.66;100208.75;5326265;32;34354;-71
2023/05/11 14:09:26;;;;;;;;;;;;;;;23.00;22.59;100208.94;5317358;32;35478;-71
2023/05/11 14:12:28;;;;;;;;;;;;;;;23.57;21.80;100206.19;5322065;32;35264;-80
2023/05/11 14:15:31;;;;;;;;;;;;;;;23.06;22.20;100211.03;5328346;32;37994;-81
2023/05/11 14:18:33;;;;;;;;;;;;;;;23.07;22.42;100207.38;5310005;32;34372;-72
2023/05/11 14:21:36;;;;;;;;;;;;;;;23.20;22.60;100201.69;5310958;32;33696;-71
2023/05/11 14:24:39;;;;;;;;;;;;;;;23.77;21.78;100194.44;5325522;32;34675;-71
2023/05/11 14:27:42;;;;;;;;;;;;;;;22.86;22.40;100210.25;5321325;32;34485;-73
2023/05/11 14:30:44;;;;;;;;;;;;;;;23.02;22.17;100208.78;5334954;32;34724;-72
2023/05/11 14:33:47;;;;;;;;;;;;;;;23.77;21.31;100205.19;5322865;32;44799;-72
2023/05/11 14:36:49;;;;;;;;;;;;;;;22.96;22.27;100218.25;5319244;32;35446;-81
2023/05/11 14:39:51;;;;;;;;;;;;;;;22.52;23.06;100195.56;5324304;32;35099;-71
2023/05/11 14:42:53;;;;;;;;;;;;;;;23.66;21.97;100187.44;5329649;32;35022;-82
2023/05/11 14:45:55;;;;;;;;;;;;;;;23.94;21.82;100201.66;5329863;32;36089;-71
2023/05/11 14:48:57;;;;;;;;;;;;;;;23.42;22.46;100206.69;5305124;32;34463;-83
2023/05/11 14:51:59;;;;;;;;;;;;;;;22.44;23.76;100198.94;5334450;32;34946;-71
2023/05/11 14:55:01;;;;;;;;;;;;;;;22.98;23.21;100197.50;5327410;32;34632;-72
2023/05/11 14:58:06;;;;;;;;;;;;;;;23.04;23.15;100207.66;5335011;32;36418;-81
2023/05/11 15:01:10;;;;;;;;;;;;;;;22.91;23.38;100196.37;5312209;32;34621;-71
2023/05/11 15:04:13;;;;;;;;;;;;;;;23.00;23.37;100194.69;5311204;32;34623;-82
2023/05/11 15:07:16;;;;;;;;;;;;;;;23.01;23.43;100196.37;5319196;32;46058;-71
2023/05/11 15:10:18;;;;;;;;;;;;;;;21.96;24.76;100198.81;5325565;32;34731;-81
2023/05/11 15:13:20;;;;;;;;;;;;;;;22.85;23.64;100189.72;5336431;32;35637;-81
2023/05/11 15:16:24;;;;;;;;;;;;;;;22.56;23.98;100197.81;5311212;32;35159;-72
2023/05/11 15:19:26;;;;;;;;;;;;;;;22.46;24.06;100193.44;5333587;32;34952;-71
2023/05/11 15:22:28;;;;;;;;;;;;;;;22.63;23.81;100198.94;5327086;32;34769;-81
2023/05/11 15:25:31;;;;;;;;;;;;;;;22.71;23.92;100217.81;5324916;32;34962;-70
2023/05/11 15:28:33;;;;;;;;;;;;;;;22.52;24.11;100204.44;5317635;32;33535;-71
2023/05/11 15:31:35;;;;;;;;;;;;;;;22.27;24.52;100203.13;5326159;32;34468;-70
2023/05/11 15:34:37;;;;;;;;;;;;;;;22.54;24.35;100204.28;5330896;32;34898;-70
2023/05/11 15:37:59;;;;;;;;;;;;;;;22.37;24.63;100200.50;5327151;32;34474;-81
2023/05/11 15:41:02;;;;;;;;;;;;;;;22.40;24.73;100210.91;5333730;32;34932;-81
2023/05/11 15:44:05;;;;;;;;;;;;;;;22.35;25.02;100213.19;5333750;32;36305;-71